EPWREPKT

Guest
Details From EPWR - STRACHOWICE
To EPKT - PYRZOWICE
Flight Number -
Tags generated
Created
Modified
Stats Distance 91 nm / 169 km
Max Altitude 5,800 ft / 1,768 m
Waypoints 3
Social Downloads 2
Likes 0
Share VATSIM

Download

Looking for another format? Having issues loading an existing format? Contact us
Advertisement - Login to hide

Notes

Basic altitude profile: - Ascent Rate: 2500ft/min - Ascent Speed: 250kts - Cruise Altitude: 35000ft - Cruise Speed: 420kts - Descent Rate: 1500ft/min - Descent Speed: 250kts Options: - Use NATs: yes - Use PACOTS: yes - Use low airways: yes - Use high airways: yes

Route

EPWR SUDOL EPKT

ID Type Via Altitude Latitude Longitude Leg Dist Tot Dist Heading (true) Name
O EPWR APT - 0 ft / 0 m 51.10388˚ 16.88189˚ - 0 nm - STRACHOWICE
SUDOL FIX - 5,800 ft / 1,768 m 50.65333˚ 18.41167˚ 63 nm 63 nm 114° / 116° -
O EPKT APT - 0 ft / 0 m 50.47426˚ 19.07436˚ 27 nm 91 nm 113° / 113° PYRZOWICE

Altitude Profile

Advertisement - Login to hide

EPWR

Details ICAO EPWR (WRO)
Name STRACHOWICE
Region Poland
Timezone Europe/Warsaw (UTC+1.0)
Stats Elevation 404 ft / 123 m (AMSL)
Location 51.103882° 16.881892°
Runways 1
Magnetic Variation 4.614° E

METAR

EPWR 170800Z 23005KT 9999 SCT006 BKN010 01/00 Q1016

Decode

TAF

TAF EPWR 170530Z 1706/1806 26006KT 8000 BKN015 TEMPO 1706/1713 4000 -RA BR BKN009 PROB40 1706/1716 2000 -SHRASN BR BKN004 BKN013CB PROB40 1716/1806 1100 -SN BR BKN007 PROB30 1716/1722 -SHSN BKN010CB

Decode

Departure Runways

ID Width Length Bearing (true) Bearing (mag) Surface Threshold Offset Overrun Length
12 197 ft / 60 m 8,192 ft / 2,497 m 115.99° 111.38° Concrete 0 ft / 0 m 0 ft / 0 m
30 197 ft / 60 m 8,192 ft / 2,497 m 296.01° 291.40° Concrete 0 ft / 0 m 0 ft / 0 m

EPKT

Details ICAO EPKT (KTW)
Name PYRZOWICE
Region Poland
Timezone Europe/Warsaw (UTC+1.0)
Stats Elevation 995 ft / 303 m (AMSL)
Location 50.474263° 19.074356°
Runways 1
Magnetic Variation 5.086° E

METAR

EPKT 170800Z 20006KT 3900 BR FEW011 SCT024 M00/M02 Q1015

Decode

TAF

TAF EPKT 170530Z 1706/1806 22007KT 4000 BR BKN030 TEMPO 1706/1709 2000 -SN BR BKN008 PROB40 1706/1707 1200 -SN BR BKN003 TEMPO 1709/1715 8000 TEMPO 1715/1806 2000 -SN BR BKN007 PROB40 1718/1806 1200 -SN BR BKN002

Decode

Destination Runways

ID Width Length Bearing (true) Bearing (mag) Surface Threshold Offset Overrun Length
09 195 ft / 59 m 9,156 ft / 2,791 m 90.18° 85.09° Concrete 0 ft / 0 m 0 ft / 0 m
27 195 ft / 59 m 9,156 ft / 2,791 m 270.22° 265.13° Concrete 0 ft / 0 m 0 ft / 0 m

Approach Navaids

Runway Type Ident Frequency Range Bearing (true) Bearing (mag) Slope Elevation
27 Localiser KAT 109.90 MHz 18 nm / 33 km 270.18° 265.09° - 995 ft / 303 m (AMSL)
27 Glidescope KAT 109.90 MHz 10 nm / 19 km 270.20° 265.11° 3.20° 995 ft / 303 m (AMSL)

Popular Alternatives